Time;durP1;ratioP1;P1;durP2;ratioP2;P2;SDS_P1;SDS_P2;PMS_P1;PMS_P2;Temp;Humidity;BMP_temperature;BMP_pressure;BME280_temperature;BME280_humidity;BME280_pressure;Samples;Min_cycle;Max_cycle;Signal;HPM_P1;HPM_P2
2023/05/31 00:00:24;;;;;;;214.75;203.25;;;15.20;99.90;;;;;;5040410;28;20170;-80
2023/05/31 00:02:53;;;;;;;312.17;295.70;;;15.20;99.90;;;;;;5040365;28;20053;-80
2023/05/31 00:05:20;;;;;;;219.82;207.68;;;15.30;99.90;;;;;;5038485;28;20046;-80
2023/05/31 00:07:48;;;;;;;201.50;190.73;;;15.30;99.90;;;;;;5040751;28;20404;-83
2023/05/31 00:10:16;;;;;;;280.90;266.23;;;15.30;99.90;;;;;;5040199;28;20060;-82
2023/05/31 00:12:43;;;;;;;282.15;267.50;;;15.30;99.90;;;;;;5042481;28;20052;-81
2023/05/31 00:15:11;;;;;;;293.33;277.83;;;15.40;99.90;;;;;;5040543;28;20041;-81
2023/05/31 00:17:38;;;;;;;264.00;249.85;;;15.40;99.90;;;;;;5039897;28;20044;-83
2023/05/31 00:20:08;;;;;;;159.15;150.27;;;15.40;99.90;;;;;;5043521;28;20056;-84
2023/05/31 00:22:35;;;;;;;333.17;315.35;;;15.40;99.90;;;;;;5043097;28;20038;-84
2023/05/31 00:25:02;;;;;;;347.23;328.55;;;15.40;99.90;;;;;;5055196;28;20041;-82
2023/05/31 00:27:30;;;;;;;559.63;524.60;;;15.40;99.90;;;;;;5053466;28;20049;-83
2023/05/31 00:29:57;;;;;;;251.88;237.73;;;15.50;99.90;;;;;;5059803;28;20061;-83
2023/05/31 00:32:25;;;;;;;235.98;223.13;;;15.50;99.90;;;;;;5063376;28;20068;-83
2023/05/31 00:34:54;;;;;;;353.88;334.17;;;15.50;99.90;;;;;;5065214;28;20068;-82
2023/05/31 00:37:23;;;;;;;319.27;302.33;;;15.50;99.90;;;;;;5055729;28;20140;-81
2023/05/31 00:39:50;;;;;;;263.77;249.57;;;15.40;99.90;;;;;;5055832;28;20117;-81
2023/05/31 00:42:18;;;;;;;873.72;790.97;;;15.40;99.90;;;;;;5057238;28;20056;-82
2023/05/31 00:44:45;;;;;;;1096.78;974.97;;;15.40;99.90;;;;;;5056900;28;20111;-82
2023/05/31 00:47:13;;;;;;;1010.97;926.78;;;15.40;99.90;;;;;;5041814;28;20060;-82
2023/05/31 00:49:41;;;;;;;1006.95;921.97;;;15.30;99.90;;;;;;5041673;28;20042;-82
2023/05/31 00:52:09;;;;;;;1027.57;936.65;;;15.30;99.90;;;;;;5041889;28;20049;-81
2023/05/31 00:54:38;;;;;;;1005.47;919.10;;;15.20;99.90;;;;;;5040612;28;20052;-81
2023/05/31 00:57:07;;;;;;;962.83;884.58;;;15.10;99.90;;;;;;5040776;28;20128;-81
2023/05/31 00:59:34;;;;;;;939.60;864.20;;;15.20;99.90;;;;;;5040094;28;20137;-81
2023/05/31 01:02:04;;;;;;;958.50;882.08;;;15.10;99.90;;;;;;5039851;28;20586;-81
2023/05/31 01:04:32;;;;;;;969.83;887.20;;;15.20;99.90;;;;;;5039494;28;20053;-83
2023/05/31 01:07:00;;;;;;;1044.45;936.85;;;15.20;99.90;;;;;;5039371;28;20108;-81
2023/05/31 01:09:30;;;;;;;937.55;864.70;;;15.20;99.90;;;;;;5035349;28;20037;-81
2023/05/31 01:12:13;;;;;;;942.67;869.67;;;15.20;99.90;;;;;;5056730;28;20445;-81
2023/05/31 01:14:53;;;;;;;932.85;860.15;;;15.20;99.90;;;;;;5042589;28;20049;-81
2023/05/31 01:17:30;;;;;;;934.60;860.28;;;15.20;99.90;;;;;;5038978;28;20046;-82
2023/05/31 01:20:01;;;;;;;931.83;858.13;;;15.20;99.90;;;;;;5039462;28;20056;-80
2023/05/31 01:22:42;;;;;;;966.53;886.75;;;15.20;99.90;;;;;;5035582;28;20045;-80
2023/05/31 01:25:29;;;;;;;979.97;899.83;;;15.10;99.90;;;;;;5039286;28;20041;-78
2023/05/31 01:27:59;;;;;;;977.05;894.15;;;15.20;99.90;;;;;;5037939;28;20037;-79
2023/05/31 01:30:29;;;;;;;1039.30;931.45;;;15.10;99.90;;;;;;5040201;28;20494;-79
2023/05/31 01:32:59;;;;;;;935.88;861.72;;;15.20;99.90;;;;;;5041750;28;20040;-79
2023/05/31 01:35:29;;;;;;;949.92;872.45;;;15.10;99.90;;;;;;5038562;28;20051;-80
2023/05/31 01:37:57;;;;;;;959.33;879.88;;;15.20;99.90;;;;;;5039732;28;20037;-78
2023/05/31 01:40:24;;;;;;;983.13;897.47;;;15.20;99.90;;;;;;5036932;28;20051;-78
2023/05/31 01:42:52;;;;;;;998.40;907.55;;;15.20;99.90;;;;;;5037327;28;20041;-79
2023/05/31 01:45:24;;;;;;;1007.85;915.92;;;15.10;99.90;;;;;;5032107;28;20087;-79
2023/05/31 01:47:59;;;;;;;974.05;883.88;;;15.10;99.90;;;;;;5039431;28;20044;-80
2023/05/31 01:50:27;;;;;;;1004.15;900.95;;;15.20;99.90;;;;;;5038372;28;20044;-81
2023/05/31 01:52:55;;;;;;;954.83;876.83;;;15.10;99.90;;;;;;5038120;28;20049;-78
2023/05/31 01:55:23;;;;;;;959.15;880.50;;;15.10;99.90;;;;;;5052147;28;20064;-80
2023/05/31 01:57:53;;;;;;;954.20;874.35;;;15.10;99.90;;;;;;5058930;28;20067;-79
2023/05/31 02:00:23;;;;;;;961.97;880.80;;;15.10;99.90;;;;;;5038728;28;20041;-80
2023/05/31 02:02:51;;;;;;;971.70;886.75;;;15.20;99.90;;;;;;5036969;28;20101;-78
2023/05/31 02:05:19;;;;;;;977.65;889.92;;;15.10;99.90;;;;;;5039467;28;20041;-78
2023/05/31 02:07:47;;;;;;;976.47;887.65;;;15.10;99.90;;;;;;5037274;28;20053;-77
2023/05/31 02:10:16;;;;;;;984.30;889.50;;;15.10;99.90;;;;;;5038337;28;20576;-80
2023/05/31 02:12:44;;;;;;;1054.35;935.03;;;15.10;99.90;;;;;;5036971;28;20045;-78
2023/05/31 02:15:12;;;;;;;956.55;877.20;;;15.10;99.90;;;;;;5035074;28;20057;-79
2023/05/31 02:17:44;;;;;;;147.40;37.22;;;15.10;99.90;;;;;;5055939;28;20041;-78
2023/05/31 02:20:13;;;;;;;15.20;10.95;;;15.10;99.90;;;;;;5037612;28;20480;-78
2023/05/31 02:22:41;;;;;;;13.32;10.52;;;15.10;99.90;;;;;;5038573;28;20045;-77
2023/05/31 02:25:10;;;;;;;17.77;10.82;;;15.10;99.90;;;;;;5037662;28;20050;-79
2023/05/31 02:27:41;;;;;;;11.65;9.70;;;15.10;99.90;;;;;;5036570;28;20038;-79
2023/05/31 02:30:10;;;;;;;10.75;9.30;;;15.10;99.90;;;;;;5037369;28;20049;-78
2023/05/31 02:32:38;;;;;;;13.85;10.32;;;15.10;99.90;;;;;;5035451;28;20041;-79
2023/05/31 02:35:08;;;;;;;12.70;9.90;;;15.20;99.90;;;;;;5036359;28;20144;-79
2023/05/31 02:37:36;;;;;;;11.60;9.23;;;15.10;99.90;;;;;;5038851;28;20497;-79
2023/05/31 02:40:07;;;;;;;12.45;9.15;;;15.20;99.90;;;;;;5041706;28;20045;-78
2023/05/31 02:42:35;;;;;;;11.70;9.38;;;15.20;99.90;;;;;;5040348;28;20037;-78
2023/05/31 02:45:03;;;;;;;10.50;9.40;;;15.10;99.90;;;;;;5039800;28;20041;-77
2023/05/31 02:47:31;;;;;;;12.45;9.02;;;15.10;99.90;;;;;;5056935;28;20052;-80
2023/05/31 02:49:58;;;;;;;10.55;8.30;;;15.20;99.90;;;;;;5039130;28;20688;-77
2023/05/31 02:52:29;;;;;;;11.88;8.40;;;15.20;99.90;;;;;;5039988;28;20695;-77
2023/05/31 02:55:17;;;;;;;9.80;8.23;;;15.20;99.90;;;;;;5037858;28;20053;-79
2023/05/31 02:58:07;;;;;;;12.75;9.27;;;15.20;99.90;;;;;;5030420;28;20049;-78
2023/05/31 03:00:38;;;;;;;11.95;9.20;;;15.20;99.90;;;;;;5023325;28;20593;-79
2023/05/31 03:03:05;;;;;;;13.55;10.73;;;15.10;99.90;;;;;;5038738;28;20092;-79
2023/05/31 03:05:44;;;;;;;13.20;10.13;;;15.10;99.90;;;;;;5022894;28;20033;-80
2023/05/31 03:08:13;;;;;;;12.48;10.63;;;15.20;99.90;;;;;;5037866;28;20053;-78
2023/05/31 03:10:41;;;;;;;14.98;11.05;;;15.20;99.90;;;;;;5041315;28;20077;-80
2023/05/31 03:13:08;;;;;;;12.65;11.00;;;15.20;99.90;;;;;;5038008;28;20048;-79
2023/05/31 03:15:36;;;;;;;14.45;10.90;;;15.20;99.90;;;;;;5021932;28;20103;-78
2023/05/31 03:18:04;;;;;;;12.32;10.45;;;15.20;99.90;;;;;;5029176;28;20037;-81
2023/05/31 03:20:33;;;;;;;14.60;11.18;;;15.20;99.90;;;;;;5036249;28;20244;-78
2023/05/31 03:23:01;;;;;;;16.77;11.88;;;15.30;99.90;;;;;;5041286;28;20417;-78
2023/05/31 03:25:30;;;;;;;14.85;11.48;;;15.20;99.90;;;;;;5020398;28;20050;-79
2023/05/31 03:27:58;;;;;;;16.50;11.85;;;15.20;99.90;;;;;;5039945;28;20050;-80
2023/05/31 03:30:26;;;;;;;11.85;9.65;;;15.20;99.90;;;;;;5021616;28;20042;-79
2023/05/31 03:32:58;;;;;;;12.27;9.68;;;15.30;99.90;;;;;;5025026;28;20061;-80
2023/05/31 03:35:26;;;;;;;11.65;8.93;;;15.30;99.90;;;;;;5022752;28;20045;-77
2023/05/31 03:37:55;;;;;;;15.32;9.45;;;15.30;99.90;;;;;;5024008;28;20045;-79
2023/05/31 03:40:22;;;;;;;20.08;9.15;;;15.30;99.90;;;;;;5022136;28;20077;-78
2023/05/31 03:42:51;;;;;;;11.75;9.90;;;15.30;99.90;;;;;;5019037;28;20056;-78
2023/05/31 03:45:19;;;;;;;12.90;8.95;;;15.30;99.90;;;;;;5029274;28;20038;-80
2023/05/31 03:47:46;;;;;;;10.43;8.38;;;15.30;99.90;;;;;;5031401;28;20500;-78
2023/05/31 03:50:14;;;;;;;11.80;7.97;;;15.30;99.90;;;;;;5041551;28;20077;-78
2023/05/31 03:52:41;;;;;;;11.52;8.25;;;15.30;99.90;;;;;;5035188;28;20054;-78
2023/05/31 03:55:10;;;;;;;12.93;8.95;;;15.30;99.90;;;;;;5024060;28;20041;-78
2023/05/31 03:57:41;;;;;;;12.50;8.70;;;15.30;99.90;;;;;;5055250;28;20056;-78
2023/05/31 04:00:12;;;;;;;10.02;8.50;;;15.30;99.90;;;;;;5043198;28;20037;-79
2023/05/31 04:02:48;;;;;;;13.02;8.35;;;15.30;99.90;;;;;;5039392;28;20045;-80
2023/05/31 04:05:16;;;;;;;12.30;9.30;;;15.40;99.90;;;;;;5040043;28;20504;-79
2023/05/31 04:07:44;;;;;;;11.27;9.60;;;15.40;99.90;;;;;;5041076;28;20043;-77
2023/05/31 04:10:12;;;;;;;11.63;9.13;;;15.40;99.90;;;;;;5039064;28;20060;-78
2023/05/31 04:12:39;;;;;;;11.70;8.35;;;15.40;99.90;;;;;;5038797;28;20060;-79
2023/05/31 04:15:07;;;;;;;11.25;8.82;;;15.50;99.90;;;;;;5038545;28;20401;-78
2023/05/31 04:17:37;;;;;;;10.98;8.70;;;15.50;99.90;;;;;;5039643;28;20515;-79
2023/05/31 04:20:07;;;;;;;10.10;8.52;;;15.40;99.90;;;;;;5040074;28;20046;-79
2023/05/31 04:22:35;;;;;;;10.02;8.57;;;15.40;99.90;;;;;;5055995;28;20429;-79
2023/05/31 04:25:03;;;;;;;10.95;8.90;;;15.40;99.90;;;;;;5038762;28;20041;-78
2023/05/31 04:27:38;;;;;;;11.90;9.13;;;15.50;99.90;;;;;;5038331;28;20042;-77
2023/05/31 04:30:07;;;;;;;11.05;9.10;;;15.50;99.90;;;;;;5037735;28;20049;-78
2023/05/31 04:32:37;;;;;;;10.85;8.23;;;15.50;99.90;;;;;;5040631;28;20046;-78
2023/05/31 04:35:08;;;;;;;11.38;7.75;;;15.50;99.90;;;;;;5041305;28;20107;-78
2023/05/31 04:37:39;;;;;;;10.65;7.90;;;15.50;99.90;;;;;;5038330;28;20054;-79
2023/05/31 04:40:10;;;;;;;11.35;8.10;;;15.30;99.90;;;;;;5042262;28;20046;-80
2023/05/31 04:42:38;;;;;;;10.38;7.90;;;15.30;99.90;;;;;;5056911;28;20033;-78
2023/05/31 04:45:09;;;;;;;10.65;8.57;;;15.30;99.90;;;;;;5045477;28;20068;-78
2023/05/31 04:47:49;;;;;;;10.07;8.55;;;15.30;99.90;;;;;;5045585;28;20083;-79
2023/05/31 04:50:18;;;;;;;13.60;8.88;;;15.30;99.90;;;;;;5043317;28;20046;-79
2023/05/31 04:52:46;;;;;;;9.75;8.20;;;15.40;99.90;;;;;;5060747;28;20217;-79
2023/05/31 04:55:14;;;;;;;9.98;8.18;;;15.40;99.90;;;;;;5036063;28;20095;-78
2023/05/31 04:57:42;;;;;;;10.23;8.10;;;15.40;99.90;;;;;;5036847;28;20080;-78
2023/05/31 05:00:15;;;;;;;9.60;8.60;;;15.40;99.90;;;;;;5038143;28;20076;-77
2023/05/31 05:02:54;;;;;;;10.85;8.30;;;15.40;99.90;;;;;;5038170;28;20044;-76
2023/05/31 05:05:23;;;;;;;10.23;9.05;;;15.40;99.90;;;;;;5038499;28;20044;-76
2023/05/31 05:07:51;;;;;;;10.55;8.98;;;15.50;99.90;;;;;;5037850;28;20053;-77
2023/05/31 05:10:18;;;;;;;14.38;10.52;;;15.50;99.90;;;;;;5038532;28;20061;-77
2023/05/31 05:12:46;;;;;;;11.45;9.57;;;15.50;99.90;;;;;;5036371;28;20045;-78
2023/05/31 05:15:13;;;;;;;13.82;9.85;;;15.60;99.90;;;;;;5037503;28;20429;-77
2023/05/31 05:17:45;;;;;;;11.85;9.98;;;15.50;99.90;;;;;;5039150;28;20090;-77
2023/05/31 05:20:15;;;;;;;11.60;9.30;;;15.60;99.90;;;;;;5038185;28;20043;-78
2023/05/31 05:22:52;;;;;;;11.57;9.18;;;15.60;99.90;;;;;;5035938;28;20053;-77
2023/05/31 05:25:21;;;;;;;12.75;10.00;;;15.70;99.90;;;;;;5038963;28;20451;-78
2023/05/31 05:27:49;;;;;;;16.40;10.23;;;15.60;99.90;;;;;;5037441;28;20053;-78
2023/05/31 05:30:18;;;;;;;10.82;9.40;;;15.70;99.90;;;;;;5055445;28;20040;-76
2023/05/31 05:32:45;;;;;;;13.00;10.68;;;15.80;99.90;;;;;;5038194;28;20040;-76
2023/05/31 05:35:14;;;;;;;13.38;10.52;;;15.90;99.90;;;;;;5039745;28;20060;-77
2023/05/31 05:37:43;;;;;;;11.70;10.50;;;16.00;99.90;;;;;;5039457;28;20052;-78
2023/05/31 05:40:11;;;;;;;14.30;10.15;;;16.00;99.90;;;;;;5039385;28;20037;-77
2023/05/31 05:42:39;;;;;;;10.35;9.15;;;16.10;99.90;;;;;;5036006;28;20424;-80
2023/05/31 05:45:07;;;;;;;11.82;9.25;;;16.10;99.90;;;;;;5037985;28;20605;-80
2023/05/31 05:47:35;;;;;;;11.27;10.07;;;16.20;99.90;;;;;;5037694;28;20047;-78
2023/05/31 05:50:04;;;;;;;13.18;9.95;;;16.30;99.90;;;;;;5037574;28;20057;-77
2023/05/31 05:52:34;;;;;;;11.90;8.82;;;16.40;99.90;;;;;;5036795;28;20122;-74
2023/05/31 05:55:02;;;;;;;12.07;9.98;;;16.50;99.90;;;;;;5035533;28;20037;-76
2023/05/31 05:57:30;;;;;;;10.98;9.40;;;16.70;99.90;;;;;;5036907;28;20121;-76
2023/05/31 06:00:11;;;;;;;11.90;9.68;;;16.70;99.90;;;;;;5037342;28;20046;-77
2023/05/31 06:02:42;;;;;;;11.10;9.30;;;16.70;99.90;;;;;;5040503;28;20504;-76
2023/05/31 06:05:10;;;;;;;10.85;8.77;;;16.70;99.90;;;;;;5052221;28;20048;-77
2023/05/31 06:07:38;;;;;;;12.35;10.75;;;16.80;99.90;;;;;;5049437;28;20531;-76
2023/05/31 06:10:08;;;;;;;10.05;8.73;;;17.00;99.90;;;;;;5036194;28;20041;-77
2023/05/31 06:12:36;;;;;;;11.27;8.60;;;17.10;99.90;;;;;;5039249;23;20054;-78
2023/05/31 06:15:04;;;;;;;10.90;9.77;;;17.00;99.90;;;;;;5010103;28;20120;-80
2023/05/31 06:17:32;;;;;;;10.18;8.75;;;17.00;99.90;;;;;;5009208;28;20149;-80
2023/05/31 06:20:00;;;;;;;8.85;7.95;;;17.00;99.90;;;;;;5011340;28;20109;-79
2023/05/31 06:22:28;;;;;;;9.48;7.85;;;16.90;99.90;;;;;;5010690;28;20042;-80
2023/05/31 06:24:59;;;;;;;25.13;20.63;;;16.90;99.90;;;;;;5011208;28;20076;-81
2023/05/31 06:27:27;;;;;;;15.57;12.80;;;16.90;99.90;;;;;;5010194;28;20409;-80
2023/05/31 06:29:58;;;;;;;9.15;7.45;;;16.90;99.90;;;;;;5010897;28;20046;-79
2023/05/31 06:32:33;;;;;;;14.50;10.10;;;16.90;99.90;;;;;;5011380;28;20823;-79
2023/05/31 06:35:01;;;;;;;13.38;9.55;;;17.00;99.90;;;;;;5011559;28;20453;-81
2023/05/31 06:37:29;;;;;;;14.15;11.10;;;17.10;99.90;;;;;;5009938;28;20049;-79
2023/05/31 06:39:58;;;;;;;8.57;7.47;;;17.40;99.90;;;;;;5011192;28;20042;-80
2023/05/31 06:42:26;;;;;;;12.18;7.60;;;17.60;99.90;;;;;;5010177;28;20125;-80
2023/05/31 06:44:53;;;;;;;11.27;9.30;;;17.80;99.90;;;;;;5011039;28;20046;-80
2023/05/31 06:47:40;;;;;;;10.00;8.55;;;18.10;99.90;;;;;;5011157;28;20124;-81
2023/05/31 06:50:16;;;;;;;11.55;8.27;;;18.30;99.90;;;;;;5011943;28;20561;-80
2023/05/31 06:52:46;;;;;;;11.57;7.75;;;18.60;99.90;;;;;;5011753;28;20059;-82
2023/05/31 06:55:44;;;;;;;15.05;8.18;;;18.90;99.90;;;;;;5005280;28;20054;-82
2023/05/31 06:58:16;;;;;;;12.27;9.00;;;19.40;99.90;;;;;;5009565;28;20053;-81
2023/05/31 07:00:45;;;;;;;12.02;8.82;;;19.80;99.90;;;;;;5009881;28;20054;-81
2023/05/31 07:03:13;;;;;;;15.73;7.78;;;20.10;99.90;;;;;;5009106;28;20501;-81
2023/05/31 07:05:43;;;;;;;9.73;7.15;;;20.10;99.90;;;;;;5009854;28;20100;-81
2023/05/31 07:08:11;;;;;;;12.05;9.00;;;20.20;99.90;;;;;;5010102;28;20513;-81
2023/05/31 07:11:02;;;;;;;9.93;8.38;;;20.10;99.90;;;;;;5010924;28;20533;-80
2023/05/31 07:13:33;;;;;;;6.93;5.50;;;20.20;99.90;;;;;;5025437;28;20042;-80
2023/05/31 07:16:00;;;;;;;6.68;5.45;;;20.50;99.90;;;;;;5013740;28;20084;-81
2023/05/31 07:18:28;;;;;;;11.05;6.18;;;20.70;99.90;;;;;;5009096;28;20409;-82
2023/05/31 07:20:58;;;;;;;8.50;5.30;;;20.70;99.90;;;;;;5008051;28;20097;-80
2023/05/31 07:23:27;;;;;;;8.85;6.82;;;20.80;99.90;;;;;;5010496;28;20038;-82
2023/05/31 07:25:57;;;;;;;11.95;9.65;;;21.00;99.90;;;;;;5025538;28;20592;-80
2023/05/31 07:28:26;;;;;;;8.68;6.40;;;21.20;99.90;;;;;;5011496;28;20042;-82
2023/05/31 07:30:53;;;;;;;8.32;6.38;;;21.40;99.90;;;;;;5009788;28;20042;-81
2023/05/31 07:33:21;;;;;;;6.38;5.55;;;21.80;99.90;;;;;;5009918;28;20137;-81
2023/05/31 07:35:51;;;;;;;8.07;6.55;;;22.30;99.90;;;;;;5011214;28;20046;-82
2023/05/31 07:38:18;;;;;;;8.65;6.95;;;22.90;99.90;;;;;;5010594;28;20046;-84
2023/05/31 07:40:45;;;;;;;12.63;7.72;;;23.30;99.90;;;;;;5007796;28;20633;-83
2023/05/31 07:43:13;;;;;;;9.30;7.65;;;23.60;99.90;;;;;;5009110;28;20401;-82
2023/05/31 07:45:42;;;;;;;10.85;7.70;;;23.30;99.90;;;;;;5009201;28;20042;-84
2023/05/31 07:48:09;;;;;;;20.38;11.70;;;23.10;99.90;;;;;;5009551;28;20054;-82
2023/05/31 07:50:37;;;;;;;7.47;6.45;;;23.20;99.90;;;;;;5009390;28;20061;-81
2023/05/31 07:53:04;;;;;;;9.02;6.28;;;23.50;99.90;;;;;;5009072;28;20137;-81
2023/05/31 07:55:32;;;;;;;6.20;5.03;;;23.90;99.90;;;;;;5009899;28;20056;-81
2023/05/31 07:57:59;;;;;;;9.02;6.72;;;23.70;99.90;;;;;;5012247;28;20889;-81
2023/05/31 08:00:28;;;;;;;8.80;5.35;;;23.70;99.90;;;;;;5011685;28;20046;-80
2023/05/31 08:02:57;;;;;;;8.73;5.35;;;23.60;99.90;;;;;;5018054;28;20132;-82
2023/05/31 08:05:25;;;;;;;7.25;5.20;;;23.60;99.90;;;;;;5010574;28;20041;-82
2023/05/31 08:07:52;;;;;;;9.52;6.10;;;23.70;99.90;;;;;;5010032;28;21024;-82
2023/05/31 08:10:19;;;;;;;10.38;5.88;;;23.60;99.90;;;;;;5009233;28;20073;-81
2023/05/31 08:12:47;;;;;;;7.50;5.50;;;23.70;99.90;;;;;;5017957;28;20065;-81
2023/05/31 08:15:15;;;;;;;7.57;6.55;;;23.90;99.90;;;;;;5028677;28;20047;-79
2023/05/31 08:17:43;;;;;;;9.80;8.48;;;24.00;99.90;;;;;;5029364;28;20046;-81
2023/05/31 08:20:15;;;;;;;10.57;7.65;;;23.90;99.90;;;;;;5029395;28;20042;-81
2023/05/31 08:22:44;;;;;;;9.80;7.75;;;24.10;99.90;;;;;;5029284;28;20064;-81
2023/05/31 08:25:13;;;;;;;8.02;6.93;;;23.80;99.90;;;;;;5028699;28;20069;-81
2023/05/31 08:27:41;;;;;;;11.23;7.30;;;23.80;99.90;;;;;;5010654;28;20107;-81
2023/05/31 08:30:10;;;;;;;8.05;6.75;;;24.00;99.90;;;;;;5029482;28;20049;-81
2023/05/31 08:32:38;;;;;;;12.23;9.70;;;24.10;99.90;;;;;;5010523;28;20117;-82
2023/05/31 08:35:07;;;;;;;7.15;4.88;;;24.40;99.90;;;;;;5029677;28;20029;-82
2023/05/31 08:37:38;;;;;;;8.30;5.75;;;24.40;99.90;;;;;;5028677;28;20123;-82
2023/05/31 08:40:07;;;;;;;6.88;5.28;;;24.40;99.90;;;;;;5028632;28;20588;-81
2023/05/31 08:42:41;;;;;;;7.25;5.55;;;24.00;99.90;;;;;;5028904;28;20045;-82
2023/05/31 08:45:11;;;;;;;8.57;5.30;;;23.60;99.90;;;;;;5011282;28;20041;-81
2023/05/31 08:47:44;;;;;;;9.35;8.13;;;23.10;99.90;;;;;;5028584;28;20038;-80
2023/05/31 08:50:12;;;;;;;8.45;6.30;;;22.60;99.90;;;;;;5028802;28;20560;-81
2023/05/31 08:52:42;;;;;;;7.15;5.97;;;22.40;99.90;;;;;;5009047;28;20065;-82
2023/05/31 08:55:10;;;;;;;7.35;6.13;;;21.90;99.90;;;;;;5024099;28;20053;-82
2023/05/31 08:57:39;;;;;;;6.85;5.88;;;22.00;99.90;;;;;;5028452;28;20073;-80
2023/05/31 09:00:10;;;;;;;10.15;7.38;;;22.10;99.90;;;;;;5028348;28;20041;-81
2023/05/31 09:02:39;;;;;;;8.25;6.97;;;22.40;99.90;;;;;;5028839;28;20040;-82
2023/05/31 09:05:10;;;;;;;10.15;7.35;;;22.70;99.90;;;;;;5028983;28;20040;-81
2023/05/31 09:07:38;;;;;;;11.00;7.60;;;22.90;99.90;;;;;;5029030;28;20520;-81
2023/05/31 09:10:09;;;;;;;9.90;7.18;;;23.10;99.90;;;;;;5028310;28;20065;-81
2023/05/31 09:12:37;;;;;;;11.63;7.00;;;23.40;99.90;;;;;;5027676;28;20041;-81
2023/05/31 09:15:06;;;;;;;9.52;7.38;;;23.60;99.90;;;;;;5027972;28;20052;-80
2023/05/31 09:17:33;;;;;;;10.43;7.65;;;23.80;99.90;;;;;;5027380;28;20069;-80
2023/05/31 09:20:03;;;;;;;13.75;9.00;;;23.80;99.90;;;;;;5028389;28;20409;-81
2023/05/31 09:22:31;;;;;;;10.60;8.30;;;23.90;99.90;;;;;;5028093;28;20050;-80
2023/05/31 09:24:59;;;;;;;10.65;8.13;;;23.80;99.90;;;;;;5027937;28;20042;-80
2023/05/31 09:27:36;;;;;;;9.25;7.63;;;23.90;99.90;;;;;;5027345;28;20128;-80
2023/05/31 09:30:08;;;;;;;14.57;11.30;;;24.00;99.90;;;;;;5028179;28;20065;-81
2023/05/31 09:32:36;;;;;;;9.48;7.43;;;24.20;99.90;;;;;;5027457;28;20478;-81
2023/05/31 09:35:13;;;;;;;12.07;10.77;;;24.00;99.90;;;;;;5028585;28;20421;-82
2023/05/31 09:37:45;;;;;;;14.10;8.13;;;24.10;99.90;;;;;;5028722;28;20041;-81
2023/05/31 09:40:15;;;;;;;11.35;9.43;;;24.40;99.90;;;;;;5027692;28;20044;-80
2023/05/31 09:42:51;;;;;;;9.60;8.60;;;24.80;99.90;;;;;;5010115;28;20049;-81
2023/05/31 09:45:19;;;;;;;11.82;8.45;;;24.70;99.90;;;;;;5025668;28;20068;-80
2023/05/31 09:47:47;;;;;;;10.00;8.90;;;24.70;99.90;;;;;;5009884;28;20037;-80
2023/05/31 09:50:17;;;;;;;13.73;10.35;;;24.10;99.90;;;;;;5027514;28;20041;-81
2023/05/31 09:52:46;;;;;;;10.35;9.02;;;23.30;99.90;;;;;;5028653;28;20045;-81
2023/05/31 09:55:15;;;;;;;11.40;9.27;;;23.30;99.90;;;;;;5027836;28;20038;-81
2023/05/31 09:57:45;;;;;;;12.73;10.48;;;23.80;99.90;;;;;;5010587;28;20390;-80
2023/05/31 10:00:17;;;;;;;12.90;11.45;;;24.10;99.90;;;;;;5027570;28;20049;-82
2023/05/31 10:02:46;;;;;;;19.70;12.35;;;24.40;99.90;;;;;;5028336;28;20050;-81
2023/05/31 10:05:15;;;;;;;12.65;11.35;;;24.50;99.90;;;;;;5028050;28;20041;-81
2023/05/31 10:07:43;;;;;;;12.63;11.27;;;24.90;99.90;;;;;;5010511;28;20049;-81
2023/05/31 10:10:11;;;;;;;10.55;9.05;;;25.20;99.90;;;;;;5027965;28;20141;-81
2023/05/31 10:12:46;;;;;;;10.10;8.57;;;25.00;99.90;;;;;;5027510;28;20127;-81
2023/05/31 10:15:18;;;;;;;11.25;10.05;;;24.90;99.90;;;;;;5027660;28;20717;-80
2023/05/31 10:17:54;;;;;;;13.57;10.50;;;24.80;99.90;;;;;;5028116;28;20099;-81
2023/05/31 10:20:22;;;;;;;9.75;8.75;;;24.70;99.90;;;;;;5027024;28;20038;-81
2023/05/31 10:22:54;;;;;;;10.57;9.35;;;24.10;99.90;;;;;;5027014;28;20095;-81
2023/05/31 10:25:29;;;;;;;11.90;9.98;;;23.90;99.90;;;;;;5026384;28;20115;-81
2023/05/31 10:28:01;;;;;;;11.20;9.87;;;24.10;99.90;;;;;;5026764;28;20037;-80
2023/05/31 10:30:35;;;;;;;12.05;10.48;;;24.60;99.90;;;;;;5026576;28;20638;-83
2023/05/31 10:33:07;;;;;;;10.73;9.43;;;25.00;99.90;;;;;;5027726;28;20045;-83
2023/05/31 10:35:35;;;;;;;11.05;9.65;;;25.10;99.90;;;;;;5027465;28;20115;-82
2023/05/31 10:38:05;;;;;;;10.68;9.68;;;25.00;99.90;;;;;;5010130;28;21079;-83
2023/05/31 10:40:42;;;;;;;14.02;12.27;;;24.90;99.90;;;;;;5027607;28;20493;-84
2023/05/31 10:43:15;;;;;;;23.98;21.50;;;24.90;99.50;;;;;;5027130;28;20524;-83
2023/05/31 10:45:47;;;;;;;20.95;17.83;;;25.00;99.90;;;;;;5027214;28;20069;-83
2023/05/31 10:48:21;;;;;;;12.95;11.65;;;25.30;98.30;;;;;;5027488;28;20113;-83
2023/05/31 10:50:58;;;;;;;13.05;11.75;;;25.20;95.80;;;;;;5027841;28;20378;-82
2023/05/31 10:53:30;;;;;;;14.38;12.88;;;24.90;96.60;;;;;;5009814;28;20064;-83
2023/05/31 10:56:04;;;;;;;17.52;13.70;;;24.50;96.70;;;;;;5029272;28;20049;-84
2023/05/31 10:58:36;;;;;;;16.50;14.77;;;24.90;97.60;;;;;;5030382;28;20600;-78
2023/05/31 11:01:07;;;;;;;17.48;13.57;;;25.50;96.40;;;;;;5013433;28;20053;-78
2023/05/31 11:03:44;;;;;;;30.95;25.92;;;25.70;94.40;;;;;;5030667;28;20061;-81
2023/05/31 11:06:14;;;;;;;17.00;14.23;;;26.00;93.70;;;;;;5030363;28;20099;-77
2023/05/31 11:09:00;;;;;;;213.07;187.20;;;26.30;92.40;;;;;;5029361;28;20052;-79
2023/05/31 11:11:46;;;;;;;18.45;16.58;;;26.70;90.80;;;;;;5030456;28;20484;-77
2023/05/31 11:14:31;;;;;;;16.67;13.05;;;26.80;87.30;;;;;;4991902;28;20034;-82
2023/05/31 11:17:16;;;;;;;13.70;12.30;;;26.80;86.60;;;;;;4988614;28;20058;-80
2023/05/31 11:19:47;;;;;;;12.40;11.15;;;26.30;85.00;;;;;;4990143;28;20205;-82
2023/05/31 11:22:16;;;;;;;11.73;10.52;;;25.80;87.70;;;;;;4991008;28;20046;-76
2023/05/31 11:24:51;;;;;;;12.18;10.98;;;25.20;90.30;;;;;;4989694;28;20116;-83
2023/05/31 11:27:20;;;;;;;18.17;13.25;;;25.10;88.80;;;;;;4990367;28;20499;-84
2023/05/31 11:30:01;;;;;;;13.38;12.00;;;25.30;90.20;;;;;;4989475;28;20045;-85
2023/05/31 11:33:08;;;;;;;14.77;12.75;;;25.50;91.40;;;;;;5241878;22;20072;-86
2023/05/31 11:35:38;;;;;;;17.75;14.65;;;25.50;91.30;;;;;;4999845;28;20118;-84
2023/05/31 11:38:07;;;;;;;15.40;13.77;;;25.50;91.40;;;;;;5010845;28;20060;-83
2023/05/31 11:40:35;;;;;;;13.68;12.27;;;25.60;91.00;;;;;;5018728;28;20115;-84
2023/05/31 11:43:15;;;;;;;19.17;13.50;;;26.00;89.20;;;;;;5020002;28;20048;-83
2023/05/31 11:45:47;;;;;;;14.07;12.70;;;25.80;87.60;;;;;;5022602;28;20046;-84
2023/05/31 11:48:39;;;;;;;13.13;11.75;;;25.80;87.60;;;;;;5016460;28;20052;-85
2023/05/31 11:51:08;;;;;;;12.30;11.10;;;26.00;87.50;;;;;;5016587;28;20085;-83
2023/05/31 11:53:35;;;;;;;14.82;13.35;;;25.80;87.60;;;;;;5018235;28;20547;-80
2023/05/31 11:56:03;;;;;;;14.68;13.18;;;25.50;90.10;;;;;;5020530;28;20121;-80
2023/05/31 11:58:30;;;;;;;13.55;11.75;;;25.20;90.90;;;;;;5016489;28;20092;-84
2023/05/31 12:01:01;;;;;;;13.65;12.35;;;25.10;91.80;;;;;;5020189;28;20103;-84
2023/05/31 12:03:30;;;;;;;13.82;12.50;;;25.00;92.60;;;;;;5014651;28;20052;-84
2023/05/31 12:06:00;;;;;;;14.50;12.93;;;25.00;93.80;;;;;;5019449;28;20057;-83
2023/05/31 12:08:29;;;;;;;14.30;12.90;;;25.20;93.50;;;;;;5013064;28;20146;-83
2023/05/31 12:11:03;;;;;;;14.32;12.82;;;25.30;93.90;;;;;;5041321;28;20053;-84
2023/05/31 12:13:31;;;;;;;13.77;12.35;;;25.60;94.10;;;;;;5018757;28;20056;-83
2023/05/31 12:16:00;;;;;;;18.33;16.50;;;25.40;92.80;;;;;;5019760;28;20044;-83
2023/05/31 12:18:30;;;;;;;13.57;12.27;;;25.20;93.90;;;;;;5020009;28;20060;-83
2023/05/31 12:20:57;;;;;;;13.15;11.85;;;25.10;94.90;;;;;;5021151;28;20153;-82
2023/05/31 12:23:24;;;;;;;15.15;13.55;;;25.20;95.30;;;;;;5019589;28;20057;-83
2023/05/31 12:25:53;;;;;;;15.57;13.18;;;25.50;95.00;;;;;;5029801;28;20049;-82
2023/05/31 12:28:22;;;;;;;13.27;11.98;;;25.20;95.70;;;;;;5042485;28;20050;-81
2023/05/31 12:30:51;;;;;;;12.70;11.40;;;25.30;96.20;;;;;;5036904;28;20049;-83
2023/05/31 12:33:19;;;;;;;13.30;11.90;;;25.20;95.10;;;;;;5051406;28;20114;-84
2023/05/31 12:35:52;;;;;;;12.32;11.13;;;25.30;95.60;;;;;;5024845;28;20038;-82
2023/05/31 12:38:20;;;;;;;12.45;11.18;;;25.30;94.80;;;;;;5019002;28;20126;-81
2023/05/31 12:40:48;;;;;;;12.20;11.00;;;25.40;94.70;;;;;;5007118;28;20112;-83
2023/05/31 12:43:18;;;;;;;11.93;10.68;;;25.40;95.00;;;;;;5020239;28;20042;-83
2023/05/31 12:45:45;;;;;;;14.60;13.20;;;25.40;95.70;;;;;;5018678;28;20038;-81